createdAt,value
2023-02-18T00:01:24.032Z,95.43
2023-02-18T00:03:52.289Z,98.37
2023-02-18T00:06:23.543Z,101.60
2023-02-18T00:08:51.455Z,98.70
2023-02-18T00:11:20.197Z,100.63
2023-02-18T00:13:51.559Z,96.63
2023-02-18T00:16:19.409Z,92.47
2023-02-18T00:18:47.306Z,93.63
2023-02-18T00:21:15.414Z,95.90
2023-02-18T00:23:44.603Z,98.27
2023-02-18T00:26:14.299Z,101.50
2023-02-18T00:28:42.229Z,95.87
2023-02-18T00:31:11.403Z,98.07
2023-02-18T00:33:40.104Z,104.23
2023-02-18T00:36:10.808Z,94.47
2023-02-18T00:38:38.831Z,103.80
2023-02-18T00:41:08.030Z,107.53
2023-02-18T00:43:35.854Z,107.27
2023-02-18T00:46:03.617Z,108.13
2023-02-18T00:48:31.477Z,109.70
2023-02-18T00:51:00.759Z,112.73
2023-02-18T00:53:28.700Z,111.47
2023-02-18T00:55:56.882Z,104.47
2023-02-18T00:58:26.573Z,107.83
2023-02-18T01:00:54.792Z,112.30
2023-02-18T01:03:23.948Z,109.47
2023-02-18T01:05:52.278Z,108.90
2023-02-18T01:08:21.763Z,108.37
2023-02-18T01:10:51.562Z,108.27
2023-02-18T01:13:20.917Z,108.37
2023-02-18T01:15:50.098Z,121.50
2023-02-18T01:18:18.062Z,107.63
2023-02-18T01:20:46.398Z,109.03
2023-02-18T01:23:14.910Z,105.07
2023-02-18T01:25:43.259Z,105.27
2023-02-18T01:28:12.940Z,104.40
2023-02-18T01:30:41.119Z,109.33
2023-02-18T01:33:10.702Z,107.07
2023-02-18T01:35:39.017Z,112.07
2023-02-18T01:38:06.785Z,112.33
2023-02-18T01:40:34.966Z,122.90
2023-02-18T01:43:02.872Z,122.07
2023-02-18T01:46:14.103Z,128.50
2023-02-18T01:48:45.072Z,127.57
2023-02-18T01:51:14.684Z,123.37
2023-02-18T01:53:47.491Z,119.70
2023-02-18T01:56:21.383Z,120.97
2023-02-18T01:58:49.837Z,111.97
2023-02-18T02:01:17.928Z,119.40
2023-02-18T02:03:47.032Z,114.83
2023-02-18T02:06:18.151Z,121.03
2023-02-18T02:08:47.350Z,122.63
2023-02-18T02:11:26.188Z,120.67
2023-02-18T02:14:14.940Z,120.50
2023-02-18T02:16:46.705Z,111.33
2023-02-18T02:20:04.801Z,121.13
2023-02-18T02:23:04.255Z,110.43
2023-02-18T02:25:49.417Z,110.17
2023-02-18T02:28:52.713Z,124.47
2023-02-18T02:31:47.526Z,122.90
2023-02-18T02:34:40.549Z,118.63
2023-02-18T02:37:14.095Z,125.20
2023-02-18T02:39:48.637Z,114.73
2023-02-18T02:42:22.342Z,120.87
2023-02-18T02:44:56.279Z,125.50
2023-02-18T02:47:28.790Z,120.97
2023-02-18T02:50:02.556Z,128.23
2023-02-18T02:52:32.446Z,147.73
2023-02-18T02:55:00.277Z,142.93
2023-02-18T02:57:46.984Z,143.90
2023-02-18T03:00:16.102Z,136.03
2023-02-18T03:03:10.603Z,134.33
2023-02-18T03:06:02.787Z,124.93
2023-02-18T03:08:38.932Z,130.50
2023-02-18T03:11:08.575Z,125.23
2023-02-18T03:13:49.287Z,131.17
2023-02-18T03:16:25.084Z,127.77
2023-02-18T03:18:59.220Z,134.83
2023-02-18T03:21:30.992Z,141.83
2023-02-18T03:24:01.569Z,131.73
2023-02-18T03:26:30.959Z,138.10
2023-02-18T03:29:01.726Z,138.47
2023-02-18T03:31:31.202Z,131.57
2023-02-18T03:34:02.555Z,134.73
2023-02-18T03:36:32.609Z,137.40
2023-02-18T03:41:57.129Z,135.70
2023-02-18T03:44:25.927Z,132.63
2023-02-18T03:46:53.759Z,141.93
2023-02-18T03:49:21.580Z,139.10
2023-02-18T03:51:50.942Z,144.23
2023-02-18T03:54:18.644Z,135.43
2023-02-18T03:56:46.453Z,141.20
2023-02-18T03:59:14.604Z,141.07
2023-02-18T04:01:42.558Z,140.37
2023-02-18T04:04:10.695Z,142.63
2023-02-18T04:06:38.476Z,140.53
2023-02-18T04:09:09.086Z,144.40
2023-02-18T04:11:37.897Z,141.33
2023-02-18T04:14:05.804Z,150.43
2023-02-18T04:16:33.946Z,140.67
2023-02-18T04:19:01.828Z,140.10
2023-02-18T04:21:29.728Z,145.23
2023-02-18T04:23:57.551Z,145.33
2023-02-18T04:26:26.740Z,141.77
2023-02-18T04:28:54.571Z,146.80
2023-02-18T04:31:22.656Z,138.43
2023-02-18T04:33:50.513Z,141.53
2023-02-18T04:36:18.363Z,139.83
2023-02-18T04:38:46.203Z,144.83
2023-02-18T04:41:13.981Z,132.60
2023-02-18T04:43:43.191Z,143.43
2023-02-18T04:46:11.310Z,134.23
2023-02-18T04:48:39.322Z,131.60
2023-02-18T04:51:07.521Z,130.67
2023-02-18T04:53:35.600Z,135.73
2023-02-18T04:56:03.531Z,136.10
2023-02-18T04:58:31.334Z,135.90
2023-02-18T05:01:02.394Z,130.37
2023-02-18T05:03:30.517Z,118.90
2023-02-18T05:05:58.768Z,123.87
2023-02-18T05:08:26.672Z,121.47
2023-02-18T05:10:54.466Z,117.00
2023-02-18T05:13:22.834Z,116.67
2023-02-18T05:15:50.693Z,116.80
2023-02-18T05:18:19.919Z,117.43
2023-02-18T05:20:47.775Z,117.53
2023-02-18T05:23:15.734Z,129.40
2023-02-18T05:25:43.638Z,122.30
2023-02-18T05:28:11.418Z,123.13
2023-02-18T05:30:39.674Z,115.57
2023-02-18T05:33:07.444Z,119.03
2023-02-18T05:35:36.568Z,120.67
2023-02-18T05:38:04.368Z,113.20
2023-02-18T05:40:32.292Z,108.40
2023-02-18T05:43:00.095Z,108.33
2023-02-18T05:45:27.945Z,112.33
2023-02-18T05:47:55.760Z,113.17
2023-02-18T05:50:23.642Z,119.53
2023-02-18T05:52:52.788Z,118.73
2023-02-18T05:55:20.786Z,120.80
2023-02-18T05:57:48.575Z,110.53
2023-02-18T06:00:16.870Z,112.17
2023-02-18T06:02:44.696Z,112.17
2023-02-18T06:05:12.475Z,110.17
2023-02-18T06:07:40.291Z,108.67
2023-02-18T06:10:10.203Z,102.37
2023-02-18T06:12:37.986Z,107.07
2023-02-18T06:15:06.253Z,107.07
2023-02-18T06:17:34.021Z,109.70
2023-02-18T06:20:01.820Z,106.43
2023-02-18T06:22:29.661Z,115.37
2023-02-18T06:24:57.542Z,113.70
2023-02-18T06:27:26.729Z,121.10
2023-02-18T06:29:54.573Z,124.40
2023-02-18T06:32:22.509Z,117.37
2023-02-18T06:34:50.496Z,122.03
2023-02-18T06:37:18.258Z,117.10
2023-02-18T06:39:54.549Z,118.27
2023-02-18T06:42:22.348Z,119.50
2023-02-18T06:44:51.963Z,117.53
2023-02-18T06:47:19.788Z,121.57
2023-02-18T06:49:47.599Z,116.07
2023-02-18T06:52:15.527Z,120.73
2023-02-18T06:54:43.503Z,115.03
2023-02-18T06:57:11.336Z,125.03
2023-02-18T06:59:39.172Z,113.60
2023-02-18T07:02:08.459Z,115.33
2023-02-18T07:04:36.269Z,111.93
2023-02-18T07:07:03.973Z,109.50
2023-02-18T07:09:31.725Z,110.13
2023-02-18T07:11:59.540Z,106.87
2023-02-18T07:14:28.496Z,112.33
2023-02-18T07:16:56.292Z,119.43
2023-02-18T07:19:25.948Z,127.73
2023-02-18T07:21:54.454Z,115.47
2023-02-18T07:24:22.227Z,112.47
2023-02-18T07:26:50.166Z,102.80
2023-02-18T07:29:17.983Z,102.60
2023-02-18T07:31:45.857Z,106.40
2023-02-18T07:34:13.855Z,98.33
2023-02-18T07:36:43.476Z,98.50
2023-02-18T07:39:12.420Z,95.03
2023-02-18T07:41:40.595Z,89.03
2023-02-18T07:44:08.415Z,94.80
2023-02-18T07:46:36.165Z,95.17
2023-02-18T07:49:05.145Z,92.37
2023-02-18T07:51:33.170Z,87.13
2023-02-18T07:54:02.361Z,88.33
2023-02-18T07:56:30.195Z,91.23
2023-02-18T07:58:57.983Z,90.97
2023-02-18T08:01:27.254Z,87.57
2023-02-18T08:03:55.269Z,89.93
2023-02-18T08:06:27.173Z,92.03
2023-02-18T08:08:55.024Z,89.87
2023-02-18T08:11:24.283Z,88.03
2023-02-18T08:13:52.155Z,85.03
2023-02-18T08:16:22.188Z,87.53
2023-02-18T08:18:50.071Z,85.87
2023-02-18T08:21:18.668Z,83.20
2023-02-18T08:23:46.739Z,82.67
2023-02-18T08:26:14.739Z,86.03
2023-02-18T08:28:47.272Z,79.57
2023-02-18T08:31:18.401Z,87.70
2023-02-18T08:33:46.430Z,88.07
2023-02-18T08:36:14.679Z,91.83
2023-02-18T08:38:42.565Z,87.67
2023-02-18T08:41:11.166Z,87.13
2023-02-18T08:43:39.114Z,83.90
2023-02-18T08:46:08.413Z,83.10
2023-02-18T08:48:43.813Z,85.27
2023-02-18T08:51:17.426Z,91.07
2023-02-18T08:53:46.356Z,92.07
2023-02-18T08:56:14.828Z,88.27
2023-02-18T08:58:42.912Z,88.53
2023-02-18T09:01:13.878Z,85.33
2023-02-18T09:03:41.752Z,78.93
2023-02-18T09:06:09.756Z,85.07
2023-02-18T09:08:37.517Z,83.03
2023-02-18T09:11:06.108Z,83.10
2023-02-18T09:13:34.473Z,83.80
2023-02-18T09:16:04.566Z,87.40
2023-02-18T09:18:36.406Z,95.67
2023-02-18T09:21:05.544Z,96.83
2023-02-18T09:23:34.523Z,95.73
2023-02-18T09:26:07.133Z,93.13
2023-02-18T09:28:34.954Z,91.07
2023-02-18T09:31:06.618Z,84.70
2023-02-18T09:33:38.288Z,93.10
2023-02-18T09:36:08.174Z,89.67
2023-02-18T09:38:36.485Z,89.90
2023-02-18T09:41:09.975Z,92.77
2023-02-18T09:43:41.694Z,95.03
2023-02-18T09:46:16.523Z,98.03
2023-02-18T09:48:46.136Z,92.63
2023-02-18T09:51:15.233Z,92.30
2023-02-18T09:53:44.905Z,93.07
2023-02-18T09:56:13.782Z,90.90
2023-02-18T09:58:42.402Z,96.33
2023-02-18T10:01:15.996Z,93.50
2023-02-18T10:03:45.330Z,93.93
2023-02-18T10:06:17.554Z,93.33
2023-02-18T10:08:46.804Z,92.50
2023-02-18T10:11:17.680Z,93.87
2023-02-18T10:13:46.565Z,92.80
2023-02-18T10:16:18.481Z,103.10
2023-02-18T10:18:49.882Z,98.47
2023-02-18T10:21:20.372Z,89.23
2023-02-18T10:23:54.830Z,93.10
2023-02-18T10:26:22.751Z,92.67
2023-02-18T10:28:52.419Z,93.57
2023-02-18T10:31:24.898Z,91.80
2023-02-18T10:34:00.344Z,87.53
2023-02-18T10:36:31.836Z,87.67
2023-02-18T10:39:35.068Z,94.00
2023-02-18T10:42:12.610Z,88.07
2023-02-18T10:44:46.114Z,91.90
2023-02-18T10:47:20.299Z,101.13
2023-02-18T10:50:01.830Z,100.83
2023-02-18T10:52:32.342Z,102.43
2023-02-18T10:55:01.646Z,98.23
2023-02-18T10:57:29.667Z,92.53
2023-02-18T11:00:00.366Z,98.97
2023-02-18T11:02:30.988Z,93.80
2023-02-18T11:05:01.980Z,88.67
2023-02-18T11:07:33.114Z,91.07
2023-02-18T11:10:03.504Z,89.10
2023-02-18T11:12:34.932Z,90.03
2023-02-18T11:15:09.301Z,90.07
2023-02-18T11:17:38.408Z,88.37
2023-02-18T11:20:26.399Z,94.30
2023-02-18T11:22:59.010Z,94.57
2023-02-18T11:25:28.270Z,92.03
2023-02-18T11:27:57.777Z,89.83
2023-02-18T11:30:29.143Z,89.93
2023-02-18T11:33:03.483Z,85.83
2023-02-18T11:35:33.674Z,89.90
2023-02-18T11:38:03.761Z,91.47
2023-02-18T11:40:34.556Z,91.50
2023-02-18T11:43:07.101Z,93.23
2023-02-18T11:45:36.292Z,89.57
2023-02-18T11:48:10.179Z,91.27
2023-02-18T11:50:40.440Z,87.83
2023-02-18T11:53:30.139Z,93.23
2023-02-18T11:55:59.373Z,89.73
2023-02-18T11:58:28.098Z,87.17
2023-02-18T12:00:58.304Z,92.03
2023-02-18T12:03:32.535Z,86.47
2023-02-18T12:06:08.298Z,93.13
2023-02-18T12:08:42.236Z,90.03
2023-02-18T12:11:14.253Z,88.67
2023-02-18T12:13:47.451Z,88.30
2023-02-18T12:16:27.551Z,85.03
2023-02-18T12:19:02.500Z,91.17
2023-02-18T12:21:40.589Z,89.57
2023-02-18T12:24:18.244Z,91.47
2023-02-18T12:26:52.800Z,84.57
2023-02-18T12:29:35.984Z,83.17
2023-02-18T12:32:17.792Z,83.30
2023-02-18T12:35:04.534Z,86.43
2023-02-18T12:37:51.494Z,86.87
2023-02-18T12:40:37.118Z,84.27
2023-02-18T12:43:09.215Z,83.10
2023-02-18T12:45:46.829Z,82.90
2023-02-18T12:48:39.852Z,82.50
2023-02-18T12:51:20.432Z,85.30
2023-02-18T12:54:02.517Z,80.50
2023-02-18T12:57:03.111Z,82.87
2023-02-18T12:59:55.375Z,79.07
2023-02-18T13:02:37.734Z,79.90
2023-02-18T13:05:12.429Z,79.07
2023-02-18T13:07:55.819Z,77.80
2023-02-18T13:10:55.438Z,76.43
2023-02-18T13:13:25.967Z,75.13
2023-02-18T13:15:56.247Z,77.57
2023-02-18T13:18:26.164Z,77.50
2023-02-18T13:20:56.897Z,78.27
2023-02-18T13:23:30.706Z,78.10
2023-02-18T13:26:01.702Z,77.70
2023-02-18T13:28:36.317Z,75.97
2023-02-18T13:31:17.397Z,75.20
2023-02-18T13:33:51.350Z,78.07
2023-02-18T13:36:31.902Z,72.47
2023-02-18T13:39:05.674Z,72.13
2023-02-18T13:41:38.991Z,73.13
2023-02-18T13:44:11.333Z,72.93
2023-02-18T13:46:53.067Z,71.07
2023-02-18T13:49:23.186Z,74.53
2023-02-18T13:51:52.117Z,72.77
2023-02-18T13:54:23.581Z,70.60
2023-02-18T13:56:55.572Z,72.13
2023-02-18T13:59:26.838Z,72.10
2023-02-18T14:01:54.725Z,70.83
2023-02-18T14:04:55.658Z,74.13
2023-02-18T14:07:44.530Z,68.50
2023-02-18T14:10:27.371Z,68.83
2023-02-18T14:13:24.304Z,65.87
2023-02-18T14:15:57.708Z,70.80
2023-02-18T14:18:36.958Z,69.70
2023-02-18T14:21:07.612Z,65.63
2023-02-18T14:23:56.984Z,67.03
2023-02-18T14:26:27.209Z,66.87
2023-02-18T14:29:01.715Z,64.87
2023-02-18T14:31:38.066Z,66.37
2023-02-18T14:34:33.617Z,66.27
2023-02-18T14:37:11.930Z,65.30
2023-02-18T14:39:50.005Z,66.67
2023-02-18T14:42:26.316Z,70.03
2023-02-18T14:45:05.579Z,67.67
2023-02-18T14:47:44.178Z,67.77
2023-02-18T14:50:14.797Z,63.87
2023-02-18T14:52:45.441Z,68.27
2023-02-18T14:55:21.275Z,65.50
2023-02-18T14:57:52.478Z,68.83
2023-02-18T15:00:23.626Z,65.23
2023-02-18T15:02:53.055Z,62.90
2023-02-18T15:05:23.079Z,59.87
2023-02-18T15:08:01.425Z,57.77
2023-02-18T15:10:39.137Z,60.27
2023-02-18T15:13:11.054Z,57.67
2023-02-18T15:15:40.237Z,54.53
2023-02-18T15:18:17.668Z,58.03
2023-02-18T15:20:46.153Z,56.67
2023-02-18T15:23:17.358Z,62.20
2023-02-18T15:25:50.469Z,64.90
2023-02-18T15:28:26.543Z,61.83
2023-02-18T15:30:58.809Z,61.53
2023-02-18T15:33:27.833Z,63.80
2023-02-18T15:36:02.011Z,64.63
2023-02-18T15:38:30.073Z,63.83
2023-02-18T15:40:58.029Z,63.93
2023-02-18T15:43:28.194Z,61.50
2023-02-18T15:45:59.012Z,62.30
2023-02-18T15:48:33.101Z,61.83
2023-02-18T15:51:16.453Z,65.83
2023-02-18T15:53:47.032Z,63.37
2023-02-18T15:56:22.014Z,62.70
2023-02-18T15:58:49.843Z,61.90
2023-02-18T16:01:28.094Z,64.60
2023-02-18T16:03:56.876Z,62.10
2023-02-18T16:06:26.225Z,66.13
2023-02-18T16:08:59.030Z,61.67
2023-02-18T16:11:28.860Z,62.37
2023-02-18T16:13:56.693Z,63.57
2023-02-18T16:16:29.835Z,64.70
2023-02-18T16:18:57.927Z,69.33
2023-02-18T16:21:32.863Z,67.60
2023-02-18T16:24:02.571Z,69.87
2023-02-18T16:26:33.345Z,73.90
2023-02-18T16:29:13.877Z,71.67
2023-02-18T16:31:43.617Z,74.40
2023-02-18T16:34:11.586Z,76.03
2023-02-18T16:36:59.462Z,74.80
2023-02-18T16:39:27.581Z,77.93
2023-02-18T16:41:55.330Z,81.67
2023-02-18T16:44:23.194Z,80.57
2023-02-18T16:46:52.398Z,81.97
2023-02-18T16:49:20.613Z,84.10
2023-02-18T16:51:50.251Z,79.53
2023-02-18T16:54:18.011Z,80.17
2023-02-18T16:56:45.724Z,75.10
2023-02-18T16:59:13.563Z,80.70
2023-02-18T17:01:44.257Z,78.73
2023-02-18T17:04:15.676Z,81.17
2023-02-18T17:06:45.039Z,92.53
2023-02-18T17:09:16.985Z,92.87
2023-02-18T17:11:45.251Z,85.20
2023-02-18T17:14:17.903Z,81.70
2023-02-18T17:16:45.973Z,85.07
2023-02-18T17:19:15.215Z,81.70
2023-02-18T17:21:42.990Z,77.23
2023-02-18T17:24:12.808Z,82.07
2023-02-18T17:26:40.868Z,77.60
2023-02-18T17:29:08.698Z,80.50
2023-02-18T17:31:38.712Z,84.00
2023-02-18T17:34:08.608Z,81.83
2023-02-18T17:36:45.330Z,82.00
2023-02-18T17:39:14.712Z,80.87
2023-02-18T17:41:44.091Z,83.37
2023-02-18T17:44:15.332Z,80.27
2023-02-18T17:46:43.293Z,81.63
2023-02-18T17:49:11.139Z,82.90
2023-02-18T17:51:40.536Z,88.27
2023-02-18T17:54:13.391Z,85.70
2023-02-18T17:56:41.497Z,87.13
2023-02-18T17:59:09.363Z,88.27
2023-02-18T18:01:37.378Z,86.90
2023-02-18T18:04:05.451Z,91.17
2023-02-18T18:06:36.074Z,85.20
2023-02-18T18:09:05.246Z,91.87
2023-02-18T18:11:33.005Z,91.63
2023-02-18T18:14:00.827Z,87.53
2023-02-18T18:16:28.804Z,87.77
2023-02-18T18:18:56.652Z,87.47
2023-02-18T18:21:29.816Z,89.00
2023-02-18T18:23:57.621Z,84.67
2023-02-18T18:26:26.896Z,87.57
2023-02-18T18:28:54.850Z,89.00
2023-02-18T18:31:22.812Z,89.67
2023-02-18T18:33:53.201Z,92.90
2023-02-18T18:36:23.877Z,89.70
2023-02-18T18:38:51.773Z,90.83
2023-02-18T18:41:21.230Z,90.03
2023-02-18T18:43:50.761Z,85.73
2023-02-18T18:46:18.915Z,92.77
2023-02-18T18:48:46.775Z,94.20
2023-02-18T18:51:15.987Z,93.43
2023-02-18T18:53:44.134Z,95.87
2023-02-18T18:56:13.191Z,95.70
2023-02-18T18:58:40.939Z,90.90
2023-02-18T19:01:15.964Z,94.93
2023-02-18T19:03:44.211Z,94.33
2023-02-18T19:06:12.265Z,89.00
2023-02-18T19:08:40.153Z,92.47
2023-02-18T19:11:08.371Z,86.80
2023-02-18T19:13:36.685Z,90.20
2023-02-18T19:16:07.086Z,87.00
2023-02-18T19:18:36.301Z,84.87
2023-02-18T19:21:04.752Z,86.97
2023-02-18T19:23:32.854Z,87.53
2023-02-18T19:26:00.801Z,90.67
2023-02-18T19:28:29.037Z,88.90
2023-02-18T19:30:56.911Z,94.90
2023-02-18T19:33:24.821Z,94.53
2023-02-18T19:35:53.957Z,95.67
2023-02-18T19:38:21.980Z,92.27
2023-02-18T19:40:49.770Z,89.50
2023-02-18T19:43:17.885Z,99.03
2023-02-18T19:45:47.451Z,96.30
2023-02-18T19:48:16.505Z,97.57
2023-02-18T19:50:44.504Z,99.73
2023-02-18T19:53:13.682Z,101.97
2023-02-18T19:55:41.493Z,109.60
2023-02-18T19:58:09.222Z,97.27
2023-02-18T20:00:37.026Z,107.27
2023-02-18T20:03:04.799Z,110.67
2023-02-18T20:05:32.581Z,107.83
2023-02-18T20:08:00.442Z,112.70
2023-02-18T20:10:29.579Z,110.53
2023-02-18T20:12:57.290Z,111.43
2023-02-18T20:15:25.364Z,109.37
2023-02-18T20:17:53.080Z,104.10
2023-02-18T20:20:21.501Z,102.80
2023-02-18T20:22:50.150Z,109.40
2023-02-18T20:25:18.213Z,107.03
2023-02-18T20:27:59.789Z,108.30
2023-02-18T20:30:28.949Z,105.23
2023-02-18T20:32:56.796Z,105.37
2023-02-18T20:35:24.690Z,105.70
2023-02-18T20:37:52.540Z,105.30
2023-02-18T20:40:20.550Z,101.90
2023-02-18T20:42:49.813Z,103.43
2023-02-18T20:45:17.746Z,104.27
2023-02-18T20:47:45.650Z,103.47
2023-02-18T20:50:13.516Z,101.60
2023-02-18T20:52:41.476Z,103.13
2023-02-18T20:55:09.512Z,99.50
2023-02-18T20:57:37.434Z,101.00
2023-02-18T21:00:07.822Z,102.90
2023-02-18T21:02:35.662Z,103.90
2023-02-18T21:05:03.492Z,97.97
2023-02-18T21:07:31.472Z,101.07
2023-02-18T21:10:02.043Z,103.40
2023-02-18T21:12:29.890Z,105.40
2023-02-18T21:14:57.708Z,101.33
2023-02-18T21:17:26.858Z,101.83
2023-02-18T21:19:54.656Z,103.37
2023-02-18T21:22:22.518Z,105.73
2023-02-18T21:24:51.381Z,91.50
2023-02-18T21:27:19.186Z,102.67
2023-02-18T21:29:47.075Z,101.40
2023-02-18T21:32:14.940Z,100.53
2023-02-18T21:34:44.239Z,97.00
2023-02-18T21:37:12.100Z,103.63
2023-02-18T21:39:41.332Z,100.77
2023-02-18T21:42:10.534Z,104.77
2023-02-18T21:44:42.532Z,98.87
2023-02-18T21:47:11.455Z,103.17
2023-02-18T21:49:39.390Z,103.27
2023-02-18T21:52:11.426Z,105.30
2023-02-18T21:54:40.894Z,98.87
2023-02-18T21:57:11.967Z,103.60
2023-02-18T21:59:40.019Z,96.67
2023-02-18T22:02:10.094Z,103.40
2023-02-18T22:04:38.158Z,100.03
2023-02-18T22:07:06.347Z,94.23
2023-02-18T22:09:36.486Z,97.27
2023-02-18T22:12:04.534Z,94.73
2023-02-18T22:14:32.778Z,96.63
2023-02-18T22:17:01.004Z,94.37
2023-02-18T22:19:29.120Z,96.03
2023-02-18T22:21:57.385Z,96.80
2023-02-18T22:24:25.546Z,97.80
2023-02-18T22:26:54.616Z,104.10
2023-02-18T22:29:22.732Z,97.87
2023-02-18T22:31:53.403Z,99.17
2023-02-18T22:34:21.785Z,96.40
2023-02-18T22:36:49.735Z,100.93
2023-02-18T22:39:17.919Z,96.93
2023-02-18T22:41:45.686Z,103.47
2023-02-18T22:44:16.247Z,94.80
2023-02-18T22:46:45.399Z,102.27
2023-02-18T22:49:13.382Z,103.33
2023-02-18T22:51:43.654Z,101.67
2023-02-18T22:54:14.204Z,102.30
2023-02-18T22:56:42.086Z,99.73
2023-02-18T22:59:11.672Z,97.53
2023-02-18T23:01:41.808Z,99.17
2023-02-18T23:04:11.325Z,99.20
2023-02-18T23:06:40.633Z,96.57
2023-02-18T23:09:10.219Z,99.20
2023-02-18T23:11:38.070Z,102.27
2023-02-18T23:14:21.569Z,97.13
2023-02-18T23:17:10.204Z,100.20
2023-02-18T23:19:38.469Z,101.53
2023-02-18T23:22:06.849Z,97.87
2023-02-18T23:24:35.164Z,98.80
2023-02-18T23:27:03.016Z,100.23
2023-02-18T23:29:30.798Z,103.17
2023-02-18T23:32:00.097Z,94.70
2023-02-18T23:34:28.583Z,101.27
2023-02-18T23:36:56.500Z,97.90
2023-02-18T23:39:24.329Z,97.73
2023-02-18T23:41:52.862Z,99.17
2023-02-18T23:44:22.916Z,110.23
2023-02-18T23:46:51.370Z,98.47
2023-02-18T23:49:24.659Z,102.23
2023-02-18T23:51:53.259Z,102.33
2023-02-18T23:54:21.263Z,103.20
2023-02-18T23:56:49.540Z,98.40
2023-02-18T23:59:17.693Z,99.37
